Time;durP1;ratioP1;P1;durP2;ratioP2;P2;SDS_P1;SDS_P2;PMS_P1;PMS_P2;Temp;Humidity;BMP_temperature;BMP_pressure;BME280_temperature;BME280_humidity;BME280_pressure;Samples;Min_cycle;Max_cycle;Signal;HPM_P1;HPM_P2
2023/05/08 00:00:09;;;;;;;12.80;9.40;;;15.20;1.00;;;;;;5116586;27;20470;-78
2023/05/08 00:02:44;;;;;;;17.53;10.20;;;15.00;1.00;;;;;;5116773;28;20525;-78
2023/05/08 00:06:01;;;;;;;16.00;10.57;;;15.00;1.00;;;;;;5116571;28;20500;-78
2023/05/08 00:08:44;;;;;;;13.60;10.30;;;15.00;1.00;;;;;;5116434;28;20405;-78
2023/05/08 00:11:43;;;;;;;15.37;10.13;;;15.00;1.00;;;;;;5116516;28;20392;-78
2023/05/08 00:14:09;;;;;;;13.80;10.00;;;15.00;1.00;;;;;;5136382;27;20390;-78
2023/05/08 00:16:55;;;;;;;15.17;10.20;;;14.90;1.00;;;;;;5134871;27;20896;-78
2023/05/08 00:19:21;;;;;;;15.03;10.40;;;14.90;1.00;;;;;;5116320;28;20466;-78
2023/05/08 00:22:02;;;;;;;16.30;10.33;;;14.90;1.00;;;;;;5116173;27;20396;-78
2023/05/08 00:24:32;;;;;;;14.03;9.50;;;14.90;1.00;;;;;;5119271;27;20177;-78
2023/05/08 00:27:37;;;;;;;14.87;10.60;;;14.90;1.00;;;;;;5118547;27;20386;-79
2023/05/08 00:30:43;;;;;;;11.40;8.80;;;14.90;1.00;;;;;;5135571;27;20484;-79
2023/05/08 00:33:55;;;;;;;14.07;9.63;;;14.90;1.00;;;;;;5125858;27;20933;-78
2023/05/08 00:36:32;;;;;;;16.90;9.70;;;14.90;1.00;;;;;;5117166;27;20390;-78
2023/05/08 00:39:31;;;;;;;15.27;10.00;;;14.90;1.00;;;;;;5099269;28;20832;-78
2023/05/08 00:42:08;;;;;;;15.67;9.83;;;14.90;1.00;;;;;;5116778;27;20410;-78
2023/05/08 00:44:44;;;;;;;11.73;9.60;;;14.80;1.00;;;;;;5130692;27;20415;-78
2023/05/08 00:47:14;;;;;;;13.07;9.93;;;14.80;1.00;;;;;;5115941;28;20411;-78
2023/05/08 00:49:40;;;;;;;19.17;10.10;;;14.80;1.00;;;;;;5122075;27;20488;-78
2023/05/08 00:52:08;;;;;;;19.63;10.47;;;14.80;1.00;;;;;;5117178;27;20431;-79
2023/05/08 00:58:08;;;;;;;13.60;9.00;;;14.80;1.00;;;;;;5115353;28;20390;-78
2023/05/08 01:01:02;;;;;;;13.07;9.90;;;14.80;1.00;;;;;;5115300;28;20440;-78
2023/05/08 01:03:49;;;;;;;16.03;9.53;;;14.80;1.00;;;;;;5116083;28;20387;-78
2023/05/08 01:06:49;;;;;;;15.90;9.53;;;14.80;1.00;;;;;;5115321;28;20427;-78
2023/05/08 01:09:20;;;;;;;15.27;9.97;;;14.80;1.00;;;;;;5114457;27;20518;-79
2023/05/08 01:15:31;;;;;;;11.90;10.23;;;14.80;1.00;;;;;;5115098;28;20386;-79
2023/05/08 01:18:27;;;;;;;12.80;9.73;;;14.80;1.00;;;;;;5097067;28;20432;-78
2023/05/08 01:21:20;;;;;;;13.10;9.30;;;14.80;1.00;;;;;;5131194;27;20510;-78
2023/05/08 01:24:39;;;;;;;11.77;9.63;;;14.80;1.00;;;;;;5135194;27;20389;-78
2023/05/08 01:27:42;;;;;;;13.60;9.70;;;14.80;1.00;;;;;;5039396;28;20939;-78
2023/05/08 01:30:32;;;;;;;13.87;9.50;;;14.80;1.00;;;;;;5051293;28;20542;-78
2023/05/08 01:33:11;;;;;;;12.40;9.43;;;14.80;1.00;;;;;;5051968;28;20496;-78
2023/05/08 01:35:49;;;;;;;12.70;9.63;;;14.80;1.00;;;;;;5035406;28;20785;-78
2023/05/08 01:38:55;;;;;;;11.80;9.80;;;14.80;1.00;;;;;;5047802;28;21003;-78
2023/05/08 01:42:01;;;;;;;10.80;9.17;;;14.80;1.00;;;;;;5052249;28;20405;-78
2023/05/08 01:44:48;;;;;;;18.60;8.97;;;14.80;1.00;;;;;;5052502;28;20414;-78
2023/05/08 01:47:37;;;;;;;13.97;9.77;;;14.80;1.00;;;;;;5051797;28;20408;-78
2023/05/08 01:50:07;;;;;;;14.10;9.80;;;14.80;1.00;;;;;;5050693;28;20445;-73
2023/05/08 01:53:01;;;;;;;11.90;8.73;;;14.80;1.00;;;;;;5051839;28;20399;-73
2023/05/08 01:55:33;;;;;;;12.90;9.67;;;14.70;1.00;;;;;;5051050;28;20525;-73
2023/05/08 01:58:00;;;;;;;12.23;9.63;;;14.70;1.00;;;;;;5049821;28;20484;-73
2023/05/08 02:00:30;;;;;;;11.57;9.10;;;14.70;1.00;;;;;;5051515;28;20436;-73
2023/05/08 02:02:57;;;;;;;13.73;9.03;;;14.70;1.00;;;;;;5101816;27;20415;-73
2023/05/08 02:05:24;;;;;;;14.67;8.67;;;14.70;1.00;;;;;;5115368;27;20463;-73
2023/05/08 02:07:57;;;;;;;10.70;8.20;;;14.70;1.00;;;;;;5133694;27;20362;-73
2023/05/08 02:10:24;;;;;;;11.70;9.00;;;14.70;1.00;;;;;;5134964;27;20839;-73
2023/05/08 02:12:52;;;;;;;11.30;8.57;;;14.70;1.00;;;;;;5115312;27;20471;-73
2023/05/08 02:15:19;;;;;;;10.40;8.90;;;14.70;1.00;;;;;;5114206;28;20393;-73
2023/05/08 02:17:49;;;;;;;11.30;9.20;;;14.70;1.00;;;;;;5131917;27;20427;-77
2023/05/08 02:20:15;;;;;;;10.40;9.17;;;14.70;1.00;;;;;;5113232;28;20519;-73
2023/05/08 02:22:44;;;;;;;11.67;8.80;;;14.70;1.00;;;;;;5114059;28;20434;-73
2023/05/08 02:25:15;;;;;;;14.50;8.60;;;14.70;1.00;;;;;;5114081;28;20821;-73
2023/05/08 02:27:46;;;;;;;10.97;8.67;;;14.70;1.00;;;;;;5119218;28;20430;-73
2023/05/08 02:30:16;;;;;;;11.67;8.77;;;14.60;1.00;;;;;;5114628;28;20473;-73
2023/05/08 02:32:43;;;;;;;9.70;8.20;;;14.70;1.00;;;;;;5114108;28;20366;-73
2023/05/08 02:35:15;;;;;;;10.20;8.60;;;14.70;1.00;;;;;;5115534;28;20873;-73
2023/05/08 02:37:44;;;;;;;9.90;8.57;;;14.60;1.00;;;;;;5116726;28;20549;-73
2023/05/08 02:40:10;;;;;;;12.20;8.53;;;14.70;1.00;;;;;;5134682;28;20781;-73
2023/05/08 02:42:38;;;;;;;11.20;8.40;;;14.70;1.00;;;;;;5128622;28;20420;-73
2023/05/08 02:45:04;;;;;;;9.90;8.30;;;14.60;1.00;;;;;;5125658;28;20416;-73
2023/05/08 02:47:59;;;;;;;10.33;8.43;;;14.70;1.00;;;;;;5133955;28;20397;-73
2023/05/08 02:50:41;;;;;;;12.63;8.80;;;14.60;1.00;;;;;;5050582;28;20445;-73
2023/05/08 02:53:11;;;;;;;10.33;8.67;;;14.60;1.00;;;;;;5051019;28;20385;-73
2023/05/08 02:55:48;;;;;;;10.53;8.70;;;14.60;1.00;;;;;;5045944;28;20437;-73
2023/05/08 02:58:29;;;;;;;9.47;8.07;;;14.60;1.00;;;;;;5048198;28;20412;-73
2023/05/08 03:01:05;;;;;;;11.23;8.33;;;14.60;1.00;;;;;;5050998;28;20536;-73
2023/05/08 03:04:05;;;;;;;10.90;8.13;;;14.60;1.00;;;;;;5051490;28;20375;-80
2023/05/08 03:06:51;;;;;;;13.57;8.77;;;14.60;1.00;;;;;;5051016;28;20383;-79
2023/05/08 03:09:35;;;;;;;10.60;8.60;;;14.60;1.00;;;;;;5050992;28;20424;-79
2023/05/08 03:12:58;;;;;;;10.70;8.57;;;14.60;1.00;;;;;;5051168;28;20413;-78
2023/05/08 03:19:32;;;;;;;14.00;9.27;;;14.60;1.00;;;;;;5031127;28;20405;-72
2023/05/08 03:22:00;;;;;;;10.20;8.47;;;14.50;1.00;;;;;;4995309;28;20973;-73
2023/05/08 03:24:29;;;;;;;11.20;8.17;;;14.50;1.00;;;;;;4991038;28;20514;-73
2023/05/08 03:26:56;;;;;;;9.63;8.13;;;14.50;1.00;;;;;;4965798;28;20419;-73
2023/05/08 03:29:24;;;;;;;11.77;8.30;;;14.40;1.00;;;;;;4952992;29;20401;-73
2023/05/08 03:32:02;;;;;;;9.27;7.80;;;14.40;1.00;;;;;;4960959;28;20793;-82
2023/05/08 03:35:08;;;;;;;12.00;7.67;;;14.40;1.00;;;;;;4984677;28;20501;-81
2023/05/08 03:37:44;;;;;;;11.50;8.57;;;14.40;1.00;;;;;;4975633;28;20445;-81
2023/05/08 03:44:25;;;;;;;9.43;8.00;;;14.40;1.00;;;;;;4975448;28;20455;-82
2023/05/08 03:46:57;;;;;;;12.17;8.03;;;14.40;1.00;;;;;;5004397;28;20509;-82
2023/05/08 03:49:36;;;;;;;12.40;8.30;;;14.30;1.00;;;;;;5017958;28;20781;-82
2023/05/08 03:52:02;;;;;;;9.70;8.13;;;14.30;1.00;;;;;;5017486;28;20431;-82
2023/05/08 03:54:44;;;;;;;10.87;9.00;;;14.30;1.00;;;;;;5018057;28;20397;-83
2023/05/08 03:57:56;;;;;;;9.77;8.37;;;14.40;1.00;;;;;;5018230;28;20435;-83
2023/05/08 04:04:16;;;;;;;10.23;8.20;;;14.30;1.00;;;;;;5117251;28;20371;-82
2023/05/08 04:07:00;;;;;;;12.70;8.53;;;14.20;1.00;;;;;;5116592;28;20387;-83
2023/05/08 04:13:24;;;;;;;11.53;8.20;;;14.20;1.00;;;;;;5121043;27;20906;-82
2023/05/08 04:16:18;;;;;;;11.33;8.47;;;14.30;1.00;;;;;;5104497;27;20818;-73
2023/05/08 04:18:47;;;;;;;13.80;8.03;;;14.30;1.00;;;;;;5134628;27;20868;-72
2023/05/08 04:21:23;;;;;;;9.00;7.90;;;14.30;1.00;;;;;;5137466;27;20478;-73
2023/05/08 04:23:51;;;;;;;10.47;8.50;;;14.30;1.00;;;;;;5132445;27;20422;-72
2023/05/08 04:26:17;;;;;;;11.87;8.50;;;14.30;1.00;;;;;;5136086;27;20454;-72
2023/05/08 04:28:45;;;;;;;11.50;8.13;;;14.30;1.00;;;;;;5130108;27;20463;-73
2023/05/08 04:31:14;;;;;;;10.73;8.77;;;14.30;1.00;;;;;;5116432;28;20362;-72
2023/05/08 04:33:44;;;;;;;15.97;8.43;;;14.30;1.00;;;;;;5112761;27;20779;-73
2023/05/08 04:36:13;;;;;;;14.30;9.20;;;14.40;1.00;;;;;;5135957;27;20416;-71
2023/05/08 04:38:40;;;;;;;12.47;9.27;;;14.30;1.00;;;;;;5130045;27;20450;-70
2023/05/08 04:41:06;;;;;;;12.00;8.90;;;14.50;1.00;;;;;;5115488;27;20433;-71
2023/05/08 04:43:33;;;;;;;10.57;8.47;;;14.40;1.00;;;;;;5114659;28;20967;-72
2023/05/08 04:45:59;;;;;;;10.87;8.50;;;14.40;1.00;;;;;;5128129;27;20519;-71
2023/05/08 04:48:24;;;;;;;23.93;9.17;;;14.40;1.00;;;;;;5123618;27;20985;-74
2023/05/08 04:50:50;;;;;;;12.03;7.70;;;14.40;1.00;;;;;;5115846;28;20216;-73
2023/05/08 04:53:16;;;;;;;13.13;8.97;;;14.40;1.00;;;;;;5124403;27;20185;-77
2023/05/08 04:55:41;;;;;;;10.90;8.73;;;14.50;1.00;;;;;;5112482;28;20265;-76
2023/05/08 04:58:09;;;;;;;11.60;8.50;;;14.50;1.00;;;;;;5115695;27;20193;-77
2023/05/08 05:00:44;;;;;;;11.00;9.20;;;14.50;1.00;;;;;;5116043;28;20200;-76
2023/05/08 05:03:14;;;;;;;12.83;9.00;;;14.50;1.00;;;;;;5118391;27;20965;-77
2023/05/08 05:06:01;;;;;;;12.37;9.47;;;14.50;1.00;;;;;;5116064;28;20371;-76
2023/05/08 05:08:44;;;;;;;11.77;9.07;;;14.50;1.00;;;;;;5115423;28;20898;-76
2023/05/08 05:11:20;;;;;;;12.87;9.17;;;14.50;1.00;;;;;;5097474;28;20636;-77
2023/05/08 05:13:46;;;;;;;12.17;8.87;;;14.60;1.00;;;;;;5115512;28;20438;-77
2023/05/08 05:16:20;;;;;;;10.30;8.40;;;14.60;1.00;;;;;;5115227;27;20484;-76
2023/05/08 05:18:50;;;;;;;11.30;8.30;;;14.60;1.00;;;;;;5115869;27;20292;-77
2023/05/08 05:21:20;;;;;;;12.43;9.87;;;14.60;1.00;;;;;;5115575;27;20447;-77
2023/05/08 05:23:56;;;;;;;14.17;9.83;;;14.60;1.00;;;;;;5115280;28;20392;-76
2023/05/08 05:26:26;;;;;;;11.97;9.37;;;14.60;1.00;;;;;;5114015;28;20407;-76
2023/05/08 05:28:51;;;;;;;12.80;9.13;;;14.60;1.00;;;;;;5115531;28;20713;-77
2023/05/08 05:31:20;;;;;;;17.20;9.60;;;14.60;1.00;;;;;;5115292;28;20377;-77
2023/05/08 05:33:46;;;;;;;15.73;9.60;;;14.60;1.00;;;;;;5130028;27;20255;-77
2023/05/08 05:36:11;;;;;;;17.50;9.60;;;14.70;1.00;;;;;;5136351;27;20461;-77
2023/05/08 05:38:38;;;;;;;12.03;8.50;;;14.70;1.00;;;;;;5136101;27;20165;-76
2023/05/08 05:41:08;;;;;;;15.50;10.50;;;14.70;1.00;;;;;;5135673;27;20212;-77
2023/05/08 05:43:50;;;;;;;14.40;10.30;;;14.70;1.00;;;;;;5135972;27;20387;-77
2023/05/08 05:46:16;;;;;;;15.00;9.50;;;14.80;1.00;;;;;;5135528;27;20358;-77
2023/05/08 05:49:01;;;;;;;14.47;9.70;;;14.70;1.00;;;;;;5119046;27;20406;-77
2023/05/08 05:54:49;;;;;;;16.40;10.10;;;14.70;1.00;;;;;;5114663;28;20391;-83
2023/05/08 06:01:01;;;;;;;23.43;9.07;;;14.70;1.00;;;;;;5114324;28;20212;-83
2023/05/08 06:03:27;;;;;;;12.03;9.47;;;14.70;1.00;;;;;;5124036;27;20426;-83
2023/05/08 06:06:02;;;;;;;17.53;9.90;;;14.70;1.00;;;;;;5114882;28;20431;-76
2023/05/08 06:08:55;;;;;;;11.77;8.50;;;14.70;1.00;;;;;;5114677;28;20157;-77
2023/05/08 06:11:26;;;;;;;11.93;9.20;;;14.80;1.00;;;;;;5114869;28;20412;-77
2023/05/08 06:13:51;;;;;;;10.90;9.40;;;14.90;1.00;;;;;;5127538;27;20498;-77
2023/05/08 06:16:21;;;;;;;12.00;9.27;;;14.90;1.00;;;;;;5135368;27;20379;-77
2023/05/08 06:18:50;;;;;;;13.60;9.37;;;15.00;1.00;;;;;;5135246;27;20157;-77
2023/05/08 06:21:16;;;;;;;15.97;9.83;;;15.10;1.00;;;;;;5117175;28;20513;-77
2023/05/08 06:23:50;;;;;;;12.63;9.53;;;15.10;1.00;;;;;;5135272;27;20379;-77
2023/05/08 06:26:15;;;;;;;14.00;9.87;;;15.10;1.00;;;;;;5134934;27;20392;-76
2023/05/08 06:28:56;;;;;;;11.40;8.40;;;15.20;1.00;;;;;;5114472;27;20431;-76
2023/05/08 06:31:38;;;;;;;12.53;8.60;;;15.20;1.00;;;;;;5134195;27;20187;-77
2023/05/08 06:34:08;;;;;;;11.07;9.00;;;15.30;1.00;;;;;;5134767;28;20506;-77
2023/05/08 06:46:39;;;;;;;14.83;8.27;;;15.50;1.00;;;;;;5134589;28;20478;-83
2023/05/08 06:49:35;;;;;;;11.20;8.53;;;15.50;1.00;;;;;;5102051;28;20510;-83
2023/05/08 06:52:01;;;;;;;12.00;8.47;;;15.50;1.00;;;;;;5114646;28;20633;-77
2023/05/08 06:54:27;;;;;;;16.70;9.37;;;15.50;1.00;;;;;;5119141;28;20448;-77
2023/05/08 06:56:56;;;;;;;12.67;9.27;;;15.60;1.00;;;;;;5134861;28;20287;-77
2023/05/08 06:59:26;;;;;;;14.77;9.37;;;15.60;1.00;;;;;;5134967;28;20677;-77
2023/05/08 07:02:02;;;;;;;21.87;8.13;;;15.60;1.00;;;;;;5134701;28;20473;-76
2023/05/08 07:04:44;;;;;;;12.20;8.70;;;15.70;1.00;;;;;;5133256;28;20919;-77
2023/05/08 07:07:43;;;;;;;11.30;8.60;;;15.70;1.00;;;;;;5136824;27;20412;-83
2023/05/08 07:13:30;;;;;;;13.00;8.87;;;15.80;1.00;;;;;;5138355;27;20350;-83
2023/05/08 07:19:18;;;;;;;12.00;8.33;;;15.80;1.00;;;;;;5138345;27;20203;-83
2023/05/08 07:21:50;;;;;;;12.33;8.50;;;15.70;1.00;;;;;;5120171;27;20403;-76
2023/05/08 07:24:16;;;;;;;22.23;9.63;;;15.70;1.00;;;;;;5138323;27;20369;-76
2023/05/08 07:26:44;;;;;;;12.90;9.00;;;15.70;1.00;;;;;;5138332;27;20385;-76
2023/05/08 07:29:26;;;;;;;12.63;9.27;;;15.70;1.00;;;;;;5130903;27;20159;-76
2023/05/08 07:31:52;;;;;;;12.27;9.67;;;15.70;1.00;;;;;;5117793;28;20388;-76
2023/05/08 07:34:20;;;;;;;14.03;8.93;;;15.70;1.00;;;;;;5117707;28;20374;-77
2023/05/08 07:36:56;;;;;;;17.60;9.13;;;15.70;1.00;;;;;;5136294;27;20179;-83
2023/05/08 07:42:44;;;;;;;11.50;9.43;;;15.80;1.00;;;;;;5137790;27;20852;-82
2023/05/08 07:45:11;;;;;;;12.60;9.83;;;15.90;1.00;;;;;;5119423;27;20378;-82
2023/05/08 07:50:59;;;;;;;14.47;9.33;;;16.10;1.00;;;;;;5137551;27;20438;-82
2023/05/08 07:56:46;;;;;;;16.47;8.30;;;16.00;1.00;;;;;;5136453;27;20222;-83
2023/05/08 07:59:31;;;;;;;11.23;9.40;;;16.10;1.00;;;;;;5124486;27;20436;-83
2023/05/08 08:05:19;;;;;;;12.10;8.67;;;16.20;1.00;;;;;;5116882;28;20707;-83
2023/05/08 08:08:14;;;;;;;17.27;9.17;;;16.30;1.00;;;;;;5117047;28;20352;-83
2023/05/08 08:14:01;;;;;;;13.17;8.13;;;16.40;1.00;;;;;;5116643;28;20376;-83
2023/05/08 08:16:44;;;;;;;10.40;8.53;;;16.40;1.00;;;;;;5130040;27;20485;-84
2023/05/08 08:19:14;;;;;;;14.93;8.70;;;16.50;1.00;;;;;;5117510;27;20161;-84
2023/05/08 08:21:43;;;;;;;21.10;8.47;;;16.50;1.00;;;;;;5137421;27;20872;-77
2023/05/08 08:24:14;;;;;;;13.13;8.80;;;16.50;1.00;;;;;;5137539;27;20389;-76
2023/05/08 08:26:39;;;;;;;16.63;9.10;;;16.60;1.00;;;;;;5137145;27;20703;-77
2023/05/08 08:29:08;;;;;;;13.37;8.70;;;16.60;1.00;;;;;;5137045;27;20404;-76
2023/05/08 08:31:38;;;;;;;14.60;8.70;;;16.70;1.00;;;;;;5135756;27;20253;-77
2023/05/08 08:34:08;;;;;;;17.43;9.27;;;16.60;1.00;;;;;;5105246;28;20928;-76
2023/05/08 08:37:08;;;;;;;12.77;8.53;;;16.60;1.00;;;;;;5116856;28;20865;-82
2023/05/08 08:39:38;;;;;;;19.53;8.50;;;16.80;1.00;;;;;;5134090;27;20954;-83
2023/05/08 08:42:44;;;;;;;12.90;8.10;;;16.90;1.00;;;;;;5135474;27;20385;-83
2023/05/08 08:48:31;;;;;;;12.80;8.60;;;17.00;1.00;;;;;;5136530;27;20430;-82
2023/05/08 08:54:29;;;;;;;10.60;8.53;;;17.10;1.00;;;;;;5136393;27;20162;-83
2023/05/08 08:57:27;;;;;;;11.50;8.50;;;17.20;1.00;;;;;;5136312;27;20384;-84
2023/05/08 09:00:21;;;;;;;9.60;8.30;;;17.30;1.00;;;;;;5136124;27;20447;-83
2023/05/08 09:06:14;;;;;;;12.93;8.50;;;17.50;1.00;;;;;;5134720;27;20561;-83
2023/05/08 09:12:14;;;;;;;11.30;7.97;;;17.60;1.00;;;;;;5135938;27;20350;-83
2023/05/08 09:15:08;;;;;;;10.67;8.60;;;17.70;1.00;;;;;;5135651;27;20413;-83
2023/05/08 09:18:25;;;;;;;12.10;8.73;;;17.80;1.00;;;;;;5135907;27;20165;-83
2023/05/08 09:24:13;;;;;;;12.73;8.73;;;17.90;1.00;;;;;;5134816;27;20409;-82
2023/05/08 09:27:20;;;;;;;11.87;8.30;;;17.90;1.00;;;;;;5113497;27;20939;-82
2023/05/08 09:30:02;;;;;;;11.13;8.67;;;18.10;1.00;;;;;;5116928;27;20164;-83
2023/05/08 09:35:50;;;;;;;10.10;8.80;;;18.30;1.00;;;;;;5135544;27;20368;-82
2023/05/08 09:41:38;;;;;;;19.40;8.73;;;18.50;1.00;;;;;;5115693;27;20429;-82
2023/05/08 09:47:25;;;;;;;15.13;9.53;;;18.80;1.00;;;;;;5135206;27;20212;-83
2023/05/08 09:50:01;;;;;;;15.27;8.90;;;18.80;1.00;;;;;;5135040;27;20760;-82
2023/05/08 09:52:27;;;;;;;14.37;9.90;;;18.90;1.00;;;;;;5134238;27;20169;-82
2023/05/08 09:55:04;;;;;;;15.90;9.67;;;18.80;1.00;;;;;;5117334;27;20402;-83
2023/05/08 09:57:56;;;;;;;18.53;10.20;;;18.70;1.00;;;;;;5096393;28;20414;-83
2023/05/08 10:03:50;;;;;;;14.33;9.10;;;18.40;1.00;;;;;;5114549;28;20960;-83
2023/05/08 10:06:56;;;;;;;11.00;8.50;;;18.50;1.00;;;;;;5126741;27;20434;-83
2023/05/08 10:09:26;;;;;;;14.70;8.70;;;18.60;1.00;;;;;;5120788;27;20951;-77
2023/05/08 10:12:32;;;;;;;15.40;8.40;;;18.60;1.00;;;;;;5114564;28;20387;-77
2023/05/08 10:15:02;;;;;;;10.80;8.60;;;18.50;1.00;;;;;;5114746;28;20474;-77
2023/05/08 10:18:01;;;;;;;12.03;7.97;;;18.60;1.00;;;;;;5122764;27;20434;-76
2023/05/08 10:20:29;;;;;;;8.20;7.30;;;18.70;1.00;;;;;;5134947;27;20469;-77
2023/05/08 10:22:56;;;;;;;10.80;7.77;;;18.80;1.00;;;;;;5135567;27;20698;-76
2023/05/08 10:25:23;;;;;;;11.60;7.47;;;18.90;1.00;;;;;;5133818;27;20464;-76
2023/05/08 10:28:12;;;;;;;9.70;7.30;;;19.10;1.00;;;;;;5123690;27;20512;-76
2023/05/08 10:30:46;;;;;;;9.20;8.13;;;19.30;1.00;;;;;;5114628;28;20415;-76
2023/05/08 10:33:18;;;;;;;10.50;9.10;;;19.40;1.00;;;;;;5114377;28;20400;-76
2023/05/08 10:35:50;;;;;;;12.33;10.20;;;19.50;1.00;;;;;;5132844;28;20515;-76
2023/05/08 10:38:32;;;;;;;14.93;9.43;;;19.60;1.00;;;;;;5135106;28;20395;-83
2023/05/08 10:44:32;;;;;;;12.13;9.27;;;19.80;1.00;;;;;;5126392;27;20514;-83
2023/05/08 10:47:36;;;;;;;12.03;9.63;;;20.00;1.00;;;;;;5138234;27;20431;-82
2023/05/08 10:50:43;;;;;;;11.93;9.20;;;20.30;1.00;;;;;;5120254;27;20447;-82
2023/05/08 10:53:17;;;;;;;12.67;9.23;;;20.30;1.00;;;;;;5139440;27;20407;-82
2023/05/08 10:55:48;;;;;;;11.17;9.67;;;20.40;1.00;;;;;;5135996;27;20438;-82
2023/05/08 10:58:31;;;;;;;12.43;9.00;;;20.50;1.00;;;;;;5136824;27;21021;-82
2023/05/08 11:04:20;;;;;;;14.03;9.60;;;20.70;1.00;;;;;;5138548;27;20469;-83
2023/05/08 11:07:25;;;;;;;10.87;8.83;;;20.90;1.00;;;;;;5120071;27;20446;-82
2023/05/08 11:10:11;;;;;;;10.87;8.63;;;21.00;1.00;;;;;;5138158;27;20411;-76
2023/05/08 11:12:38;;;;;;;9.30;7.60;;;21.30;1.00;;;;;;5138693;27;20404;-76
2023/05/08 11:15:09;;;;;;;9.30;7.47;;;21.50;1.00;;;;;;5138643;27;20463;-76
2023/05/08 11:17:34;;;;;;;12.23;7.73;;;21.80;1.00;;;;;;5138432;27;20404;-76
2023/05/08 11:20:05;;;;;;;12.00;8.00;;;22.10;1.00;;;;;;5119940;27;20469;-77
2023/05/08 11:23:28;;;;;;;13.70;7.50;;;22.50;1.00;;;;;;5138489;27;20160;-76
2023/05/08 11:26:11;;;;;;;9.70;7.27;;;22.80;1.00;;;;;;5053766;28;20442;-83
2023/05/08 11:28:56;;;;;;;9.03;7.60;;;23.30;1.00;;;;;;5055182;28;20506;-82
2023/05/08 11:38:26;;;;;;;9.13;7.40;;;24.00;1.00;;;;;;5054677;28;20401;-77
2023/05/08 11:40:58;;;;;;;8.07;7.10;;;24.10;1.00;;;;;;5054025;28;20844;-77
2023/05/08 11:43:26;;;;;;;8.73;7.90;;;24.00;1.00;;;;;;5053811;28;20964;-76
2023/05/08 11:45:53;;;;;;;7.47;6.77;;;23.70;1.00;;;;;;5037732;28;20427;-76
2023/05/08 11:48:19;;;;;;;15.10;6.63;;;23.70;1.00;;;;;;5053921;28;20440;-76
2023/05/08 11:50:45;;;;;;;8.83;6.70;;;23.90;1.00;;;;;;5037546;28;20460;-77
2023/05/08 11:53:11;;;;;;;10.13;7.40;;;24.20;1.00;;;;;;5053154;28;20433;-76
2023/05/08 11:55:39;;;;;;;9.03;7.40;;;24.30;1.00;;;;;;5034573;28;21022;-76
2023/05/08 11:58:16;;;;;;;9.87;7.43;;;24.30;1.00;;;;;;5034475;28;20414;-76
2023/05/08 12:00:44;;;;;;;9.10;7.70;;;24.50;1.00;;;;;;5104157;28;20501;-76
2023/05/08 12:03:22;;;;;;;8.90;7.07;;;24.60;1.00;;;;;;5098696;28;20413;-76
2023/05/08 12:05:49;;;;;;;16.10;7.60;;;24.80;1.00;;;;;;5132936;27;20482;-76
2023/05/08 12:08:56;;;;;;;9.10;6.93;;;24.80;1.00;;;;;;5138040;27;20397;-82
2023/05/08 12:11:32;;;;;;;8.83;7.57;;;24.80;1.00;;;;;;5137445;27;20388;-83
2023/05/08 12:17:19;;;;;;;8.10;6.73;;;25.00;1.00;;;;;;5137181;27;20373;-83
2023/05/08 12:20:15;;;;;;;8.70;7.10;;;24.80;1.00;;;;;;5136995;27;20440;-83
2023/05/08 12:23:09;;;;;;;7.07;6.37;;;24.90;1.00;;;;;;5117431;27;20195;-83
2023/05/08 12:26:20;;;;;;;7.20;6.50;;;25.10;1.00;;;;;;5116998;28;20419;-83
2023/05/08 12:28:55;;;;;;;9.93;7.30;;;25.40;1.00;;;;;;5098031;28;20532;-89
2023/05/08 12:34:43;;;;;;;8.67;7.13;;;25.10;1.00;;;;;;5117805;27;20433;-91
2023/05/08 12:40:41;;;;;;;10.20;7.13;;;25.20;1.00;;;;;;5116772;28;20225;-90
2023/05/08 12:43:07;;;;;;;7.30;6.60;;;25.60;1.00;;;;;;5116628;28;20425;-94
2023/05/08 12:49:35;;;;;;;8.20;6.97;;;25.80;1.00;;;;;;5116814;27;20485;-90
2023/05/08 12:52:22;;;;;;;10.90;8.03;;;25.60;1.00;;;;;;5109385;28;20460;-93
2023/05/08 12:55:26;;;;;;;8.30;7.37;;;25.80;1.00;;;;;;5097714;28;20747;-90
2023/05/08 12:58:32;;;;;;;9.60;7.67;;;26.00;1.00;;;;;;5096977;28;20519;-89
2023/05/08 13:01:50;;;;;;;8.53;7.63;;;26.10;1.00;;;;;;5115542;28;20482;-87
2023/05/08 13:04:36;;;;;;;13.03;8.03;;;26.30;1.00;;;;;;5128443;27;20427;-80
2023/05/08 13:10:24;;;;;;;8.00;7.07;;;26.50;1.00;;;;;;5115534;28;20431;-94
2023/05/08 13:12:50;;;;;;;8.27;7.47;;;26.50;1.00;;;;;;5098060;28;20432;-88
2023/05/08 13:15:26;;;;;;;14.67;6.97;;;26.40;1.00;;;;;;5097316;28;20184;-92
2023/05/08 13:21:13;;;;;;;8.87;7.97;;;26.70;1.00;;;;;;5114810;28;20449;-89
2023/05/08 13:24:32;;;;;;;14.53;7.70;;;26.60;1.00;;;;;;5096877;28;20421;-87
2023/05/08 13:33:44;;;;;;;7.50;6.80;;;26.80;1.00;;;;;;5122098;28;20424;-87
2023/05/08 13:36:44;;;;;;;7.67;6.87;;;26.80;1.00;;;;;;5097319;28;20437;-90
2023/05/08 13:39:26;;;;;;;8.90;6.80;;;26.70;1.00;;;;;;5120384;28;20468;-82
2023/05/08 13:41:52;;;;;;;6.87;6.20;;;26.50;1.00;;;;;;5117215;28;20428;-81
2023/05/08 13:45:09;;;;;;;13.33;7.10;;;26.40;1.00;;;;;;5125327;28;20434;-81
2023/05/08 13:47:39;;;;;;;8.17;7.20;;;26.20;1.00;;;;;;5128925;28;20205;-81
2023/05/08 13:50:05;;;;;;;6.53;5.70;;;25.90;1.00;;;;;;5092719;27;1156074;-80
2023/05/08 13:52:30;;;;;;;8.80;6.80;;;25.70;1.00;;;;;;5115279;27;20547;-80
2023/05/08 13:58:26;;;;;;;12.47;6.93;;;25.30;1.00;;;;;;5124649;27;20719;-90
2023/05/08 14:01:14;;;;;;;7.00;6.20;;;25.30;1.00;;;;;;5110015;27;20465;-91
2023/05/08 14:07:01;;;;;;;9.30;7.20;;;25.30;1.00;;;;;;5116590;27;20378;-92
2023/05/08 14:12:49;;;;;;;7.53;6.57;;;25.10;1.00;;;;;;5126601;27;20252;-87
2023/05/08 14:15:20;;;;;;;8.37;6.90;;;25.20;1.00;;;;;;5133708;27;20851;-87
2023/05/08 14:21:08;;;;;;;8.43;6.50;;;25.30;1.00;;;;;;5123344;27;20474;-86
2023/05/08 14:26:55;;;;;;;8.27;6.60;;;25.50;1.00;;;;;;5134119;27;20688;-82
2023/05/08 14:29:21;;;;;;;7.80;7.00;;;25.10;1.00;;;;;;5114069;28;20476;-83
2023/05/08 14:31:56;;;;;;;8.27;6.90;;;25.00;1.00;;;;;;5114303;28;20163;-79
2023/05/08 14:34:26;;;;;;;8.17;7.27;;;24.60;1.00;;;;;;5129155;28;20187;-79
2023/05/08 14:37:08;;;;;;;8.10;6.57;;;24.60;1.00;;;;;;5118112;28;20828;-80
2023/05/08 14:39:53;;;;;;;8.90;7.90;;;24.60;1.00;;;;;;5129106;28;20421;-81
2023/05/08 14:42:32;;;;;;;9.50;7.13;;;24.50;1.00;;;;;;5127995;28;20438;-79
2023/05/08 14:45:20;;;;;;;7.60;6.80;;;24.50;1.00;;;;;;5134107;28;20458;-79
2023/05/08 14:47:45;;;;;;;11.83;7.50;;;24.30;1.00;;;;;;5134265;28;20539;-80
2023/05/08 14:50:11;;;;;;;17.33;7.57;;;24.20;1.00;;;;;;5134248;28;20439;-80
2023/05/08 14:52:36;;;;;;;74.03;29.07;;;24.00;1.00;;;;;;5134057;28;20193;-82
2023/05/08 14:55:02;;;;;;;12.80;8.93;;;23.90;1.00;;;;;;5097702;28;20228;-79
2023/05/08 14:57:28;;;;;;;13.10;8.57;;;23.80;1.00;;;;;;5113281;28;20180;-79
2023/05/08 14:59:56;;;;;;;10.90;7.80;;;23.60;1.00;;;;;;5113497;28;20458;-78
2023/05/08 15:02:22;;;;;;;7.03;5.80;;;23.30;1.00;;;;;;5117229;28;20236;-80
2023/05/08 15:04:56;;;;;;;5.73;5.23;;;23.20;1.00;;;;;;5095454;28;20432;-80
2023/05/08 15:07:26;;;;;;;5.77;5.17;;;23.00;1.00;;;;;;5113772;28;20842;-80
2023/05/08 15:09:55;;;;;;;5.77;5.20;;;23.40;1.00;;;;;;5129197;28;20455;-84
2023/05/08 15:12:26;;;;;;;7.63;5.67;;;23.40;1.00;;;;;;5133473;28;20432;-80
2023/05/08 15:14:52;;;;;;;6.67;5.50;;;23.50;1.00;;;;;;5123891;28;20539;-76
2023/05/08 15:17:20;;;;;;;6.27;5.67;;;23.60;1.00;;;;;;5114514;28;20939;-77
2023/05/08 15:19:56;;;;;;;7.13;5.90;;;23.90;1.00;;;;;;5113494;28;20958;-76
2023/05/08 15:22:22;;;;;;;6.73;5.77;;;23.80;1.00;;;;;;5130915;28;20421;-76
2023/05/08 15:24:50;;;;;;;7.23;6.37;;;23.80;1.00;;;;;;5125457;28;20429;-76
2023/05/08 15:27:16;;;;;;;6.83;6.13;;;23.70;1.00;;;;;;5115070;28;20230;-75
2023/05/08 15:29:41;;;;;;;8.00;6.87;;;23.40;1.00;;;;;;5117597;27;20738;-75
2023/05/08 15:32:33;;;;;;;6.63;5.40;;;23.20;1.00;;;;;;5118062;27;20179;-87
2023/05/08 15:34:59;;;;;;;7.73;6.63;;;22.90;1.00;;;;;;5114927;28;20183;-89
2023/05/08 15:37:38;;;;;;;8.37;6.60;;;22.80;1.00;;;;;;5102935;27;21104;-89
2023/05/08 15:40:07;;;;;;;6.97;6.27;;;22.30;1.00;;;;;;5099727;28;20465;-86
2023/05/08 15:42:33;;;;;;;10.37;6.67;;;23.30;1.00;;;;;;5099976;28;20941;-87
2023/05/08 15:45:00;;;;;;;8.13;6.67;;;21.90;1.00;;;;;;5116864;28;20408;-86
2023/05/08 15:47:38;;;;;;;8.70;6.73;;;21.80;1.00;;;;;;5116898;28;20399;-88
2023/05/08 15:50:04;;;;;;;8.20;6.97;;;21.70;1.00;;;;;;5116313;27;20611;-86
2023/05/08 15:56:05;;;;;;;8.10;6.87;;;21.60;1.00;;;;;;5118030;28;21168;-86
2023/05/08 15:58:31;;;;;;;8.93;6.40;;;21.70;1.00;;;;;;5112449;28;20437;-86
2023/05/08 16:00:57;;;;;;;7.07;6.37;;;21.60;1.00;;;;;;5101935;27;20465;-86
2023/05/08 16:06:44;;;;;;;11.87;7.17;;;21.20;1.00;;;;;;5117337;27;20409;-89
2023/05/08 16:09:20;;;;;;;10.17;7.47;;;21.00;1.00;;;;;;5099083;28;20411;-89
2023/05/08 16:15:08;;;;;;;8.17;6.80;;;20.70;1.00;;;;;;5121376;27;20459;-86
2023/05/08 16:17:56;;;;;;;7.70;6.90;;;20.50;1.00;;;;;;5098190;28;20514;-86